sensor_id;sensor_type;location;lat;lon;timestamp;P1;durP1;ratioP1;P2;durP2;ratioP2
20159;SDS011;50187;50.492;12.134;2023-04-16T00:00:43;7.33;;;6.50;;
20159;SDS011;50187;50.492;12.134;2023-04-16T00:03:28;6.60;;;5.90;;
20159;SDS011;50187;50.492;12.134;2023-04-16T00:06:14;6.60;;;5.73;;
20159;SDS011;50187;50.492;12.134;2023-04-16T00:08:59;6.53;;;5.93;;
20159;SDS011;50187;50.492;12.134;2023-04-16T00:11:44;6.63;;;6.03;;
20159;SDS011;50187;50.492;12.134;2023-04-16T00:14:29;5.80;;;5.30;;
20159;SDS011;50187;50.492;12.134;2023-04-16T00:17:14;6.90;;;6.20;;
20159;SDS011;50187;50.492;12.134;2023-04-16T00:19:59;6.60;;;5.30;;
20159;SDS011;50187;50.492;12.134;2023-04-16T00:22:45;5.77;;;5.20;;
20159;SDS011;50187;50.492;12.134;2023-04-16T00:25:30;6.63;;;6.03;;
20159;SDS011;50187;50.492;12.134;2023-04-16T00:28:15;5.80;;;5.20;;
20159;SDS011;50187;50.492;12.134;2023-04-16T00:31:00;6.40;;;5.53;;
20159;SDS011;50187;50.492;12.134;2023-04-16T00:33:46;5.60;;;5.10;;
20159;SDS011;50187;50.492;12.134;2023-04-16T00:36:31;5.60;;;5.10;;
20159;SDS011;50187;50.492;12.134;2023-04-16T00:39:16;5.77;;;5.20;;
20159;SDS011;50187;50.492;12.134;2023-04-16T00:42:01;5.80;;;5.23;;
20159;SDS011;50187;50.492;12.134;2023-04-16T00:44:47;6.20;;;5.60;;
20159;SDS011;50187;50.492;12.134;2023-04-16T00:47:32;5.93;;;5.37;;
20159;SDS011;50187;50.492;12.134;2023-04-16T00:50:18;5.90;;;5.30;;
20159;SDS011;50187;50.492;12.134;2023-04-16T00:53:03;4.93;;;4.47;;
20159;SDS011;50187;50.492;12.134;2023-04-16T00:55:49;5.07;;;4.67;;
20159;SDS011;50187;50.492;12.134;2023-04-16T00:58:34;5.57;;;4.67;;
20159;SDS011;50187;50.492;12.134;2023-04-16T01:01:20;6.03;;;5.30;;
20159;SDS011;50187;50.492;12.134;2023-04-16T01:04:05;5.43;;;4.93;;
20159;SDS011;50187;50.492;12.134;2023-04-16T01:06:51;4.70;;;4.30;;
20159;SDS011;50187;50.492;12.134;2023-04-16T01:09:36;5.33;;;4.67;;
20159;SDS011;50187;50.492;12.134;2023-04-16T01:12:22;4.63;;;4.13;;
20159;SDS011;50187;50.492;12.134;2023-04-16T01:15:09;4.73;;;4.23;;
20159;SDS011;50187;50.492;12.134;2023-04-16T01:17:55;4.30;;;3.90;;
20159;SDS011;50187;50.492;12.134;2023-04-16T01:20:41;4.47;;;4.07;;
20159;SDS011;50187;50.492;12.134;2023-04-16T01:23:27;5.10;;;4.60;;
20159;SDS011;50187;50.492;12.134;2023-04-16T01:26:12;4.93;;;4.53;;
20159;SDS011;50187;50.492;12.134;2023-04-16T01:28:58;4.60;;;4.20;;
20159;SDS011;50187;50.492;12.134;2023-04-16T01:31:44;4.83;;;4.40;;
20159;SDS011;50187;50.492;12.134;2023-04-16T01:34:38;4.80;;;4.37;;
20159;SDS011;50187;50.492;12.134;2023-04-16T01:37:24;5.10;;;4.60;;
20159;SDS011;50187;50.492;12.134;2023-04-16T01:40:09;4.70;;;4.30;;
20159;SDS011;50187;50.492;12.134;2023-04-16T01:42:55;4.80;;;4.23;;
20159;SDS011;50187;50.492;12.134;2023-04-16T01:45:41;4.67;;;4.27;;
20159;SDS011;50187;50.492;12.134;2023-04-16T01:48:29;4.27;;;3.87;;
20159;SDS011;50187;50.492;12.134;2023-04-16T01:51:14;4.97;;;4.53;;
20159;SDS011;50187;50.492;12.134;2023-04-16T01:53:59;5.80;;;4.67;;
20159;SDS011;50187;50.492;12.134;2023-04-16T01:56:45;4.80;;;4.23;;
20159;SDS011;50187;50.492;12.134;2023-04-16T01:59:30;4.33;;;3.93;;
20159;SDS011;50187;50.492;12.134;2023-04-16T02:02:15;4.63;;;4.20;;
20159;SDS011;50187;50.492;12.134;2023-04-16T02:05:01;4.27;;;3.87;;
20159;SDS011;50187;50.492;12.134;2023-04-16T02:07:47;3.83;;;3.53;;
20159;SDS011;50187;50.492;12.134;2023-04-16T02:10:33;4.47;;;4.07;;
20159;SDS011;50187;50.492;12.134;2023-04-16T02:13:19;4.07;;;3.77;;
20159;SDS011;50187;50.492;12.134;2023-04-16T02:16:04;4.37;;;3.97;;
20159;SDS011;50187;50.492;12.134;2023-04-16T02:19:07;4.17;;;3.80;;
20159;SDS011;50187;50.492;12.134;2023-04-16T02:21:53;3.87;;;3.47;;
20159;SDS011;50187;50.492;12.134;2023-04-16T02:24:38;4.07;;;3.77;;
20159;SDS011;50187;50.492;12.134;2023-04-16T02:27:26;3.70;;;3.40;;
20159;SDS011;50187;50.492;12.134;2023-04-16T02:30:18;4.33;;;3.73;;
20159;SDS011;50187;50.492;12.134;2023-04-16T02:33:04;3.87;;;3.57;;
20159;SDS011;50187;50.492;12.134;2023-04-16T02:35:51;3.97;;;3.67;;
20159;SDS011;50187;50.492;12.134;2023-04-16T02:38:37;4.37;;;3.97;;
20159;SDS011;50187;50.492;12.134;2023-04-16T02:41:22;4.53;;;4.07;;
20159;SDS011;50187;50.492;12.134;2023-04-16T02:44:08;3.90;;;3.60;;
20159;SDS011;50187;50.492;12.134;2023-04-16T02:46:53;3.70;;;3.40;;
20159;SDS011;50187;50.492;12.134;2023-04-16T02:49:38;3.93;;;3.63;;
20159;SDS011;50187;50.492;12.134;2023-04-16T02:52:23;4.10;;;3.70;;
20159;SDS011;50187;50.492;12.134;2023-04-16T02:55:08;3.57;;;3.27;;
20159;SDS011;50187;50.492;12.134;2023-04-16T02:57:54;3.53;;;3.23;;
20159;SDS011;50187;50.492;12.134;2023-04-16T03:00:39;3.70;;;3.40;;
20159;SDS011;50187;50.492;12.134;2023-04-16T03:03:24;3.93;;;3.47;;
20159;SDS011;50187;50.492;12.134;2023-04-16T03:06:10;4.03;;;3.73;;
20159;SDS011;50187;50.492;12.134;2023-04-16T03:08:55;4.13;;;3.73;;
20159;SDS011;50187;50.492;12.134;2023-04-16T03:11:40;3.20;;;2.97;;
20159;SDS011;50187;50.492;12.134;2023-04-16T03:14:25;3.43;;;3.13;;
20159;SDS011;50187;50.492;12.134;2023-04-16T03:17:10;3.53;;;3.23;;
20159;SDS011;50187;50.492;12.134;2023-04-16T03:19:56;3.37;;;2.90;;
20159;SDS011;50187;50.492;12.134;2023-04-16T03:22:41;3.40;;;3.10;;
20159;SDS011;50187;50.492;12.134;2023-04-16T03:25:26;3.67;;;3.37;;
20159;SDS011;50187;50.492;12.134;2023-04-16T03:28:11;3.27;;;3.07;;
20159;SDS011;50187;50.492;12.134;2023-04-16T03:30:56;3.50;;;3.20;;
20159;SDS011;50187;50.492;12.134;2023-04-16T03:33:41;3.93;;;3.53;;
20159;SDS011;50187;50.492;12.134;2023-04-16T03:36:26;3.60;;;3.30;;
20159;SDS011;50187;50.492;12.134;2023-04-16T03:39:11;3.47;;;3.17;;
20159;SDS011;50187;50.492;12.134;2023-04-16T03:41:57;3.67;;;3.37;;
20159;SDS011;50187;50.492;12.134;2023-04-16T03:44:42;3.50;;;3.20;;
20159;SDS011;50187;50.492;12.134;2023-04-16T03:47:28;3.20;;;3.00;;
20159;SDS011;50187;50.492;12.134;2023-04-16T03:50:17;3.70;;;3.40;;
20159;SDS011;50187;50.492;12.134;2023-04-16T03:53:04;3.63;;;3.33;;
20159;SDS011;50187;50.492;12.134;2023-04-16T03:55:50;3.37;;;3.07;;
20159;SDS011;50187;50.492;12.134;2023-04-16T03:58:37;3.20;;;2.90;;
20159;SDS011;50187;50.492;12.134;2023-04-16T04:01:23;3.63;;;3.40;;
20159;SDS011;50187;50.492;12.134;2023-04-16T04:04:09;3.20;;;3.00;;
20159;SDS011;50187;50.492;12.134;2023-04-16T04:06:55;3.50;;;3.20;;
20159;SDS011;50187;50.492;12.134;2023-04-16T04:09:42;3.27;;;3.07;;
20159;SDS011;50187;50.492;12.134;2023-04-16T04:12:27;3.37;;;3.07;;
20159;SDS011;50187;50.492;12.134;2023-04-16T04:15:13;3.40;;;3.10;;
20159;SDS011;50187;50.492;12.134;2023-04-16T04:17:59;3.03;;;2.80;;
20159;SDS011;50187;50.492;12.134;2023-04-16T04:20:45;3.27;;;3.07;;
20159;SDS011;50187;50.492;12.134;2023-04-16T04:23:33;3.57;;;3.27;;
20159;SDS011;50187;50.492;12.134;2023-04-16T04:26:19;3.23;;;2.93;;
20159;SDS011;50187;50.492;12.134;2023-04-16T04:29:05;3.30;;;3.00;;
20159;SDS011;50187;50.492;12.134;2023-04-16T04:31:50;3.17;;;2.87;;
20159;SDS011;50187;50.492;12.134;2023-04-16T04:34:35;3.10;;;2.90;;
20159;SDS011;50187;50.492;12.134;2023-04-16T04:37:23;3.50;;;2.93;;
20159;SDS011;50187;50.492;12.134;2023-04-16T04:40:08;2.83;;;2.63;;
20159;SDS011;50187;50.492;12.134;2023-04-16T04:42:53;2.77;;;2.57;;
20159;SDS011;50187;50.492;12.134;2023-04-16T04:45:40;3.00;;;2.80;;
20159;SDS011;50187;50.492;12.134;2023-04-16T04:48:25;3.00;;;2.80;;
20159;SDS011;50187;50.492;12.134;2023-04-16T04:51:12;2.97;;;2.70;;
20159;SDS011;50187;50.492;12.134;2023-04-16T04:53:58;3.10;;;2.80;;
20159;SDS011;50187;50.492;12.134;2023-04-16T04:56:44;2.60;;;2.40;;
20159;SDS011;50187;50.492;12.134;2023-04-16T04:59:31;3.30;;;3.00;;
20159;SDS011;50187;50.492;12.134;2023-04-16T05:02:16;2.90;;;2.70;;
20159;SDS011;50187;50.492;12.134;2023-04-16T05:05:02;3.03;;;2.73;;
20159;SDS011;50187;50.492;12.134;2023-04-16T05:07:48;2.90;;;2.70;;
20159;SDS011;50187;50.492;12.134;2023-04-16T05:10:34;2.97;;;2.77;;
20159;SDS011;50187;50.492;12.134;2023-04-16T05:13:19;3.10;;;2.90;;
20159;SDS011;50187;50.492;12.134;2023-04-16T05:16:04;2.80;;;2.60;;
20159;SDS011;50187;50.492;12.134;2023-04-16T05:18:49;2.80;;;2.60;;
20159;SDS011;50187;50.492;12.134;2023-04-16T05:21:35;2.70;;;2.50;;
20159;SDS011;50187;50.492;12.134;2023-04-16T05:24:21;2.37;;;2.17;;
20159;SDS011;50187;50.492;12.134;2023-04-16T05:27:06;2.40;;;2.30;;
20159;SDS011;50187;50.492;12.134;2023-04-16T05:29:51;2.37;;;2.23;;
20159;SDS011;50187;50.492;12.134;2023-04-16T05:32:37;2.57;;;2.37;;
20159;SDS011;50187;50.492;12.134;2023-04-16T05:35:23;2.80;;;2.60;;
20159;SDS011;50187;50.492;12.134;2023-04-16T05:38:08;2.40;;;2.23;;
20159;SDS011;50187;50.492;12.134;2023-04-16T05:40:54;2.70;;;2.50;;
20159;SDS011;50187;50.492;12.134;2023-04-16T05:43:39;2.93;;;2.73;;
20159;SDS011;50187;50.492;12.134;2023-04-16T05:46:24;2.47;;;2.27;;
20159;SDS011;50187;50.492;12.134;2023-04-16T05:49:10;3.00;;;2.80;;
20159;SDS011;50187;50.492;12.134;2023-04-16T05:51:55;2.53;;;2.33;;
20159;SDS011;50187;50.492;12.134;2023-04-16T05:54:40;2.80;;;2.60;;
20159;SDS011;50187;50.492;12.134;2023-04-16T05:57:27;2.50;;;2.30;;
20159;SDS011;50187;50.492;12.134;2023-04-16T06:00:12;2.30;;;2.10;;
20159;SDS011;50187;50.492;12.134;2023-04-16T06:02:57;2.27;;;2.17;;
20159;SDS011;50187;50.492;12.134;2023-04-16T06:05:43;2.93;;;2.73;;
20159;SDS011;50187;50.492;12.134;2023-04-16T06:08:29;2.73;;;2.53;;
20159;SDS011;50187;50.492;12.134;2023-04-16T06:11:14;2.70;;;2.50;;
20159;SDS011;50187;50.492;12.134;2023-04-16T06:13:59;2.70;;;2.50;;
20159;SDS011;50187;50.492;12.134;2023-04-16T06:16:44;2.43;;;2.30;;
20159;SDS011;50187;50.492;12.134;2023-04-16T06:19:29;2.93;;;2.73;;
20159;SDS011;50187;50.492;12.134;2023-04-16T06:22:14;2.90;;;2.70;;
20159;SDS011;50187;50.492;12.134;2023-04-16T06:25:00;2.90;;;2.70;;
20159;SDS011;50187;50.492;12.134;2023-04-16T06:27:45;2.80;;;2.60;;
20159;SDS011;50187;50.492;12.134;2023-04-16T06:30:30;2.53;;;2.33;;
20159;SDS011;50187;50.492;12.134;2023-04-16T06:33:16;2.90;;;2.70;;
20159;SDS011;50187;50.492;12.134;2023-04-16T06:36:01;2.30;;;2.20;;
20159;SDS011;50187;50.492;12.134;2023-04-16T06:38:46;2.50;;;2.30;;
20159;SDS011;50187;50.492;12.134;2023-04-16T06:41:31;2.70;;;2.50;;
20159;SDS011;50187;50.492;12.134;2023-04-16T06:44:16;2.17;;;2.07;;
20159;SDS011;50187;50.492;12.134;2023-04-16T06:47:01;2.60;;;2.40;;
20159;SDS011;50187;50.492;12.134;2023-04-16T06:49:46;2.30;;;2.20;;
20159;SDS011;50187;50.492;12.134;2023-04-16T06:52:31;2.30;;;2.20;;
20159;SDS011;50187;50.492;12.134;2023-04-16T06:55:17;2.60;;;2.40;;
20159;SDS011;50187;50.492;12.134;2023-04-16T06:58:02;2.60;;;2.40;;
20159;SDS011;50187;50.492;12.134;2023-04-16T07:00:47;2.63;;;2.43;;
20159;SDS011;50187;50.492;12.134;2023-04-16T07:03:32;2.40;;;2.30;;
20159;SDS011;50187;50.492;12.134;2023-04-16T07:06:18;2.63;;;2.43;;
20159;SDS011;50187;50.492;12.134;2023-04-16T07:09:03;2.90;;;2.70;;
20159;SDS011;50187;50.492;12.134;2023-04-16T07:11:48;2.30;;;2.10;;
20159;SDS011;50187;50.492;12.134;2023-04-16T07:14:33;2.43;;;2.30;;
20159;SDS011;50187;50.492;12.134;2023-04-16T07:17:18;2.80;;;2.60;;
20159;SDS011;50187;50.492;12.134;2023-04-16T07:20:03;2.80;;;2.60;;
20159;SDS011;50187;50.492;12.134;2023-04-16T07:22:49;2.27;;;2.17;;
20159;SDS011;50187;50.492;12.134;2023-04-16T07:25:34;2.17;;;2.07;;
20159;SDS011;50187;50.492;12.134;2023-04-16T07:28:19;2.67;;;2.47;;
20159;SDS011;50187;50.492;12.134;2023-04-16T07:31:04;2.13;;;2.03;;
20159;SDS011;50187;50.492;12.134;2023-04-16T07:33:50;2.30;;;2.20;;
20159;SDS011;50187;50.492;12.134;2023-04-16T07:36:35;2.67;;;2.47;;
20159;SDS011;50187;50.492;12.134;2023-04-16T07:39:20;2.23;;;2.13;;
20159;SDS011;50187;50.492;12.134;2023-04-16T07:42:05;2.43;;;2.23;;
20159;SDS011;50187;50.492;12.134;2023-04-16T07:44:50;2.23;;;2.10;;
20159;SDS011;50187;50.492;12.134;2023-04-16T07:47:35;2.50;;;2.30;;
20159;SDS011;50187;50.492;12.134;2023-04-16T07:50:21;2.20;;;2.10;;
20159;SDS011;50187;50.492;12.134;2023-04-16T07:53:06;1.70;;;1.60;;
20159;SDS011;50187;50.492;12.134;2023-04-16T07:55:52;2.10;;;2.00;;
20159;SDS011;50187;50.492;12.134;2023-04-16T07:58:36;2.10;;;2.00;;
20159;SDS011;50187;50.492;12.134;2023-04-16T08:01:22;2.33;;;2.20;;
20159;SDS011;50187;50.492;12.134;2023-04-16T08:04:07;2.00;;;1.90;;
20159;SDS011;50187;50.492;12.134;2023-04-16T08:06:52;1.90;;;1.80;;
20159;SDS011;50187;50.492;12.134;2023-04-16T08:09:45;2.10;;;2.00;;
20159;SDS011;50187;50.492;12.134;2023-04-16T08:12:32;2.50;;;2.30;;
20159;SDS011;50187;50.492;12.134;2023-04-16T08:15:17;2.13;;;2.03;;
20159;SDS011;50187;50.492;12.134;2023-04-16T08:18:03;2.20;;;2.10;;
20159;SDS011;50187;50.492;12.134;2023-04-16T08:20:50;2.17;;;2.07;;
20159;SDS011;50187;50.492;12.134;2023-04-16T08:23:36;2.50;;;2.30;;
20159;SDS011;50187;50.492;12.134;2023-04-16T08:26:20;2.10;;;1.93;;
20159;SDS011;50187;50.492;12.134;2023-04-16T08:29:06;2.50;;;2.30;;
20159;SDS011;50187;50.492;12.134;2023-04-16T08:31:51;2.20;;;2.00;;
20159;SDS011;50187;50.492;12.134;2023-04-16T08:34:38;2.07;;;1.97;;
20159;SDS011;50187;50.492;12.134;2023-04-16T08:37:24;2.17;;;2.07;;
20159;SDS011;50187;50.492;12.134;2023-04-16T08:40:09;1.60;;;1.50;;
20159;SDS011;50187;50.492;12.134;2023-04-16T08:42:57;2.03;;;1.93;;
20159;SDS011;50187;50.492;12.134;2023-04-16T08:45:44;2.00;;;1.90;;
20159;SDS011;50187;50.492;12.134;2023-04-16T08:48:31;2.10;;;2.00;;
20159;SDS011;50187;50.492;12.134;2023-04-16T08:51:18;1.90;;;1.80;;
20159;SDS011;50187;50.492;12.134;2023-04-16T08:54:08;2.00;;;1.90;;
20159;SDS011;50187;50.492;12.134;2023-04-16T08:56:58;2.00;;;1.90;;
20159;SDS011;50187;50.492;12.134;2023-04-16T08:59:45;1.63;;;1.53;;
20159;SDS011;50187;50.492;12.134;2023-04-16T09:02:31;1.80;;;1.70;;
20159;SDS011;50187;50.492;12.134;2023-04-16T09:05:18;1.90;;;1.80;;
20159;SDS011;50187;50.492;12.134;2023-04-16T09:08:06;1.90;;;1.80;;
20159;SDS011;50187;50.492;12.134;2023-04-16T09:10:52;1.43;;;1.43;;
20159;SDS011;50187;50.492;12.134;2023-04-16T09:13:39;2.00;;;1.90;;
20159;SDS011;50187;50.492;12.134;2023-04-16T09:16:24;2.53;;;2.33;;
20159;SDS011;50187;50.492;12.134;2023-04-16T09:19:12;1.90;;;1.80;;
20159;SDS011;50187;50.492;12.134;2023-04-16T09:21:58;1.70;;;1.60;;
20159;SDS011;50187;50.492;12.134;2023-04-16T09:24:43;2.03;;;1.93;;
20159;SDS011;50187;50.492;12.134;2023-04-16T09:27:29;2.03;;;1.93;;
20159;SDS011;50187;50.492;12.134;2023-04-16T09:30:24;1.90;;;1.80;;
20159;SDS011;50187;50.492;12.134;2023-04-16T09:33:15;2.00;;;1.90;;
20159;SDS011;50187;50.492;12.134;2023-04-16T09:36:06;1.80;;;1.70;;
20159;SDS011;50187;50.492;12.134;2023-04-16T09:38:53;1.80;;;1.70;;
20159;SDS011;50187;50.492;12.134;2023-04-16T09:41:41;2.00;;;1.90;;
20159;SDS011;50187;50.492;12.134;2023-04-16T09:44:33;1.57;;;1.50;;
20159;SDS011;50187;50.492;12.134;2023-04-16T09:47:23;1.80;;;1.70;;
20159;SDS011;50187;50.492;12.134;2023-04-16T09:50:13;2.00;;;1.90;;
20159;SDS011;50187;50.492;12.134;2023-04-16T09:53:02;2.00;;;1.80;;
20159;SDS011;50187;50.492;12.134;2023-04-16T09:55:47;1.70;;;1.60;;
20159;SDS011;50187;50.492;12.134;2023-04-16T09:58:34;1.93;;;1.83;;
20159;SDS011;50187;50.492;12.134;2023-04-16T10:01:20;1.70;;;1.60;;
20159;SDS011;50187;50.492;12.134;2023-04-16T10:04:06;2.17;;;2.07;;
20159;SDS011;50187;50.492;12.134;2023-04-16T10:07:02;1.77;;;1.67;;
20159;SDS011;50187;50.492;12.134;2023-04-16T10:09:49;1.67;;;1.60;;
20159;SDS011;50187;50.492;12.134;2023-04-16T10:12:34;1.80;;;1.70;;
20159;SDS011;50187;50.492;12.134;2023-04-16T10:15:20;1.80;;;1.70;;
20159;SDS011;50187;50.492;12.134;2023-04-16T10:18:05;1.63;;;1.53;;
20159;SDS011;50187;50.492;12.134;2023-04-16T10:20:51;1.70;;;1.60;;
20159;SDS011;50187;50.492;12.134;2023-04-16T10:23:37;2.13;;;2.03;;
20159;SDS011;50187;50.492;12.134;2023-04-16T10:26:25;1.70;;;1.60;;
20159;SDS011;50187;50.492;12.134;2023-04-16T10:29:13;1.80;;;1.70;;
20159;SDS011;50187;50.492;12.134;2023-04-16T10:31:59;1.90;;;1.80;;
20159;SDS011;50187;50.492;12.134;2023-04-16T10:34:45;1.47;;;1.37;;
20159;SDS011;50187;50.492;12.134;2023-04-16T10:37:32;1.63;;;1.53;;
20159;SDS011;50187;50.492;12.134;2023-04-16T10:40:21;1.77;;;1.67;;
20159;SDS011;50187;50.492;12.134;2023-04-16T10:43:10;1.70;;;1.60;;
20159;SDS011;50187;50.492;12.134;2023-04-16T10:52:08;1.73;;;1.63;;
20159;SDS011;50187;50.492;12.134;2023-04-16T10:54:57;1.70;;;1.60;;
20159;SDS011;50187;50.492;12.134;2023-04-16T10:57:43;1.77;;;1.67;;
20159;SDS011;50187;50.492;12.134;2023-04-16T11:00:47;1.30;;;1.30;;
20159;SDS011;50187;50.492;12.134;2023-04-16T11:03:33;1.37;;;1.37;;
20159;SDS011;50187;50.492;12.134;2023-04-16T11:06:25;1.77;;;1.67;;
20159;SDS011;50187;50.492;12.134;2023-04-16T11:09:40;1.60;;;1.50;;
20159;SDS011;50187;50.492;12.134;2023-04-16T11:12:56;1.70;;;1.60;;
20159;SDS011;50187;50.492;12.134;2023-04-16T11:15:40;1.60;;;1.50;;
20159;SDS011;50187;50.492;12.134;2023-04-16T11:18:26;1.73;;;1.63;;
20159;SDS011;50187;50.492;12.134;2023-04-16T11:21:11;1.53;;;1.43;;
20159;SDS011;50187;50.492;12.134;2023-04-16T11:23:57;1.60;;;1.50;;
20159;SDS011;50187;50.492;12.134;2023-04-16T11:26:42;1.60;;;1.50;;
20159;SDS011;50187;50.492;12.134;2023-04-16T11:29:26;1.87;;;1.77;;
20159;SDS011;50187;50.492;12.134;2023-04-16T11:32:18;1.73;;;1.63;;
20159;SDS011;50187;50.492;12.134;2023-04-16T11:35:15;1.70;;;1.60;;
20159;SDS011;50187;50.492;12.134;2023-04-16T11:38:01;1.80;;;1.70;;
20159;SDS011;50187;50.492;12.134;2023-04-16T11:40:48;1.80;;;1.70;;
20159;SDS011;50187;50.492;12.134;2023-04-16T11:43:33;5.10;;;1.83;;
20159;SDS011;50187;50.492;12.134;2023-04-16T11:46:18;6.37;;;2.03;;
20159;SDS011;50187;50.492;12.134;2023-04-16T11:49:11;2.97;;;1.83;;
20159;SDS011;50187;50.492;12.134;2023-04-16T11:51:59;1.83;;;1.70;;
20159;SDS011;50187;50.492;12.134;2023-04-16T11:54:48;1.70;;;1.60;;
20159;SDS011;50187;50.492;12.134;2023-04-16T11:57:33;1.90;;;1.80;;
20159;SDS011;50187;50.492;12.134;2023-04-16T12:00:18;5.40;;;1.80;;
20159;SDS011;50187;50.492;12.134;2023-04-16T12:03:08;1.90;;;1.73;;
20159;SDS011;50187;50.492;12.134;2023-04-16T12:05:54;1.70;;;1.60;;
20159;SDS011;50187;50.492;12.134;2023-04-16T12:08:40;1.90;;;1.80;;
20159;SDS011;50187;50.492;12.134;2023-04-16T12:11:41;1.73;;;1.63;;
20159;SDS011;50187;50.492;12.134;2023-04-16T12:14:27;1.60;;;1.50;;
20159;SDS011;50187;50.492;12.134;2023-04-16T12:17:19;4.70;;;2.07;;
20159;SDS011;50187;50.492;12.134;2023-04-16T12:20:11;1.90;;;1.80;;
20159;SDS011;50187;50.492;12.134;2023-04-16T12:22:58;2.13;;;1.70;;
20159;SDS011;50187;50.492;12.134;2023-04-16T12:25:45;2.10;;;1.40;;
20159;SDS011;50187;50.492;12.134;2023-04-16T12:28:33;1.87;;;1.70;;
20159;SDS011;50187;50.492;12.134;2023-04-16T12:31:35;2.70;;;1.60;;
20159;SDS011;50187;50.492;12.134;2023-04-16T12:34:22;2.63;;;1.50;;
20159;SDS011;50187;50.492;12.134;2023-04-16T12:37:27;2.03;;;1.70;;
20159;SDS011;50187;50.492;12.134;2023-04-16T12:40:12;3.40;;;1.73;;
20159;SDS011;50187;50.492;12.134;2023-04-16T12:42:57;2.27;;;1.70;;
20159;SDS011;50187;50.492;12.134;2023-04-16T12:45:42;4.43;;;2.10;;
20159;SDS011;50187;50.492;12.134;2023-04-16T12:48:27;2.03;;;1.73;;
20159;SDS011;50187;50.492;12.134;2023-04-16T12:51:12;5.57;;;2.00;;
20159;SDS011;50187;50.492;12.134;2023-04-16T12:53:58;7.23;;;2.00;;
20159;SDS011;50187;50.492;12.134;2023-04-16T12:56:44;4.00;;;1.93;;
20159;SDS011;50187;50.492;12.134;2023-04-16T12:59:30;3.03;;;1.93;;
20159;SDS011;50187;50.492;12.134;2023-04-16T13:02:15;2.37;;;1.73;;
20159;SDS011;50187;50.492;12.134;2023-04-16T13:05:01;3.23;;;1.90;;
20159;SDS011;50187;50.492;12.134;2023-04-16T13:07:46;2.27;;;1.60;;
20159;SDS011;50187;50.492;12.134;2023-04-16T13:10:32;2.97;;;1.57;;
20159;SDS011;50187;50.492;12.134;2023-04-16T13:13:17;14.40;;;1.90;;
20159;SDS011;50187;50.492;12.134;2023-04-16T13:16:02;2.07;;;1.90;;
20159;SDS011;50187;50.492;12.134;2023-04-16T13:18:52;2.17;;;1.63;;
20159;SDS011;50187;50.492;12.134;2023-04-16T13:21:37;5.47;;;2.07;;
20159;SDS011;50187;50.492;12.134;2023-04-16T13:24:23;5.10;;;2.33;;
20159;SDS011;50187;50.492;12.134;2023-04-16T13:27:08;2.50;;;2.03;;
20159;SDS011;50187;50.492;12.134;2023-04-16T13:29:53;3.87;;;1.73;;
20159;SDS011;50187;50.492;12.134;2023-04-16T13:32:38;10.13;;;2.30;;
20159;SDS011;50187;50.492;12.134;2023-04-16T13:35:25;5.47;;;2.40;;
20159;SDS011;50187;50.492;12.134;2023-04-16T13:38:11;3.57;;;2.20;;
20159;SDS011;50187;50.492;12.134;2023-04-16T13:40:56;3.70;;;1.93;;
20159;SDS011;50187;50.492;12.134;2023-04-16T13:43:41;2.70;;;2.33;;
20159;SDS011;50187;50.492;12.134;2023-04-16T13:46:25;4.70;;;2.00;;
20159;SDS011;50187;50.492;12.134;2023-04-16T13:49:11;4.77;;;2.20;;
20159;SDS011;50187;50.492;12.134;2023-04-16T13:51:56;5.30;;;2.20;;
20159;SDS011;50187;50.492;12.134;2023-04-16T13:54:41;5.07;;;2.53;;
20159;SDS011;50187;50.492;12.134;2023-04-16T13:57:36;3.67;;;2.63;;
20159;SDS011;50187;50.492;12.134;2023-04-16T14:00:21;2.70;;;2.43;;
20159;SDS011;50187;50.492;12.134;2023-04-16T14:03:06;6.73;;;2.80;;
20159;SDS011;50187;50.492;12.134;2023-04-16T14:05:52;5.80;;;2.60;;
20159;SDS011;50187;50.492;12.134;2023-04-16T14:08:37;7.10;;;2.30;;
20159;SDS011;50187;50.492;12.134;2023-04-16T14:11:21;5.60;;;2.33;;
20159;SDS011;50187;50.492;12.134;2023-04-16T14:14:07;2.63;;;2.43;;
20159;SDS011;50187;50.492;12.134;2023-04-16T14:16:53;5.70;;;2.63;;
20159;SDS011;50187;50.492;12.134;2023-04-16T14:19:38;2.63;;;2.33;;
20159;SDS011;50187;50.492;12.134;2023-04-16T14:22:23;2.37;;;2.17;;
20159;SDS011;50187;50.492;12.134;2023-04-16T14:25:08;3.27;;;2.37;;
20159;SDS011;50187;50.492;12.134;2023-04-16T14:27:53;5.60;;;2.57;;
20159;SDS011;50187;50.492;12.134;2023-04-16T14:30:39;3.10;;;2.10;;
20159;SDS011;50187;50.492;12.134;2023-04-16T14:33:24;3.53;;;2.50;;
20159;SDS011;50187;50.492;12.134;2023-04-16T14:36:09;3.47;;;2.60;;
20159;SDS011;50187;50.492;12.134;2023-04-16T14:38:55;2.73;;;2.40;;
20159;SDS011;50187;50.492;12.134;2023-04-16T14:41:40;3.40;;;2.47;;
20159;SDS011;50187;50.492;12.134;2023-04-16T14:44:25;3.27;;;2.37;;
20159;SDS011;50187;50.492;12.134;2023-04-16T14:47:10;3.47;;;1.90;;
20159;SDS011;50187;50.492;12.134;2023-04-16T14:49:55;4.27;;;2.73;;
20159;SDS011;50187;50.492;12.134;2023-04-16T14:52:40;3.93;;;2.70;;
20159;SDS011;50187;50.492;12.134;2023-04-16T14:55:25;3.40;;;2.40;;
20159;SDS011;50187;50.492;12.134;2023-04-16T14:58:10;3.83;;;2.80;;
20159;SDS011;50187;50.492;12.134;2023-04-16T15:00:59;4.70;;;2.30;;
20159;SDS011;50187;50.492;12.134;2023-04-16T15:03:44;4.63;;;2.50;;
20159;SDS011;50187;50.492;12.134;2023-04-16T15:06:29;2.90;;;2.33;;
20159;SDS011;50187;50.492;12.134;2023-04-16T15:09:16;3.53;;;2.13;;
20159;SDS011;50187;50.492;12.134;2023-04-16T15:12:01;4.13;;;2.67;;
20159;SDS011;50187;50.492;12.134;2023-04-16T15:14:46;2.37;;;2.17;;
20159;SDS011;50187;50.492;12.134;2023-04-16T15:17:31;3.27;;;2.40;;
20159;SDS011;50187;50.492;12.134;2023-04-16T15:20:17;4.20;;;2.43;;
20159;SDS011;50187;50.492;12.134;2023-04-16T15:23:02;2.67;;;2.40;;
20159;SDS011;50187;50.492;12.134;2023-04-16T15:25:47;2.57;;;2.37;;
20159;SDS011;50187;50.492;12.134;2023-04-16T15:28:33;3.33;;;2.43;;
20159;SDS011;50187;50.492;12.134;2023-04-16T15:31:18;2.60;;;2.37;;
20159;SDS011;50187;50.492;12.134;2023-04-16T15:34:05;3.13;;;2.37;;
20159;SDS011;50187;50.492;12.134;2023-04-16T15:36:50;3.37;;;2.43;;
20159;SDS011;50187;50.492;12.134;2023-04-16T15:39:35;2.80;;;2.30;;
20159;SDS011;50187;50.492;12.134;2023-04-16T15:42:20;2.80;;;2.30;;
20159;SDS011;50187;50.492;12.134;2023-04-16T15:45:05;2.57;;;2.30;;
20159;SDS011;50187;50.492;12.134;2023-04-16T15:47:51;3.07;;;2.20;;
20159;SDS011;50187;50.492;12.134;2023-04-16T15:50:36;3.07;;;2.20;;
20159;SDS011;50187;50.492;12.134;2023-04-16T15:53:21;2.40;;;2.20;;
20159;SDS011;50187;50.492;12.134;2023-04-16T15:56:07;3.50;;;2.47;;
20159;SDS011;50187;50.492;12.134;2023-04-16T15:58:52;3.17;;;2.10;;
20159;SDS011;50187;50.492;12.134;2023-04-16T16:01:37;2.33;;;2.10;;
20159;SDS011;50187;50.492;12.134;2023-04-16T16:04:23;2.50;;;2.20;;
20159;SDS011;50187;50.492;12.134;2023-04-16T16:07:10;3.30;;;2.17;;
20159;SDS011;50187;50.492;12.134;2023-04-16T16:09:56;2.00;;;1.90;;
20159;SDS011;50187;50.492;12.134;2023-04-16T16:12:42;2.73;;;2.53;;
20159;SDS011;50187;50.492;12.134;2023-04-16T16:15:27;4.50;;;1.90;;
20159;SDS011;50187;50.492;12.134;2023-04-16T16:18:13;2.53;;;2.33;;
20159;SDS011;50187;50.492;12.134;2023-04-16T16:20:58;2.30;;;2.10;;
20159;SDS011;50187;50.492;12.134;2023-04-16T16:23:43;2.50;;;2.30;;
20159;SDS011;50187;50.492;12.134;2023-04-16T16:26:29;2.33;;;2.10;;
20159;SDS011;50187;50.492;12.134;2023-04-16T16:29:14;3.77;;;1.93;;
20159;SDS011;50187;50.492;12.134;2023-04-16T16:31:59;2.40;;;1.93;;